createdAt,value
2017-07-16T00:01:23.946Z,0
2017-07-16T00:02:04.428Z,0
2017-07-16T00:02:44.913Z,0
2017-07-16T00:03:25.392Z,0
2017-07-16T00:04:05.856Z,0
2017-07-16T00:06:23.689Z,0
2017-07-16T00:07:04.154Z,0
2017-07-16T00:07:44.651Z,0
2017-07-16T00:08:25.146Z,0
2017-07-16T00:09:05.618Z,0
2017-07-16T00:09:46.013Z,0
2017-07-16T00:10:26.470Z,0
2017-07-16T00:11:06.913Z,0
2017-07-16T00:11:47.369Z,0
2017-07-16T00:12:27.799Z,0
2017-07-16T00:13:08.268Z,0
2017-07-16T00:13:48.721Z,0
2017-07-16T00:16:01.404Z,0
2017-07-16T00:16:41.858Z,0
2017-07-16T00:17:22.326Z,0
2017-07-16T00:18:02.841Z,0
2017-07-16T00:18:43.304Z,0
2017-07-16T00:19:23.791Z,0
2017-07-16T00:20:04.261Z,0
2017-07-16T00:20:44.710Z,0
2017-07-16T00:21:25.179Z,0
2017-07-16T00:22:05.678Z,0
2017-07-16T00:22:46.155Z,0
2017-07-16T00:23:26.637Z,0
2017-07-16T00:24:07.102Z,0
2017-07-16T00:24:47.602Z,0
2017-07-16T00:25:28.080Z,0
2017-07-16T00:26:08.544Z,0
2017-07-16T00:26:49.007Z,0
2017-07-16T00:27:29.486Z,0
2017-07-16T00:28:10.012Z,0
2017-07-16T00:28:50.479Z,0
2017-07-16T00:29:30.939Z,0
2017-07-16T00:30:11.420Z,0
2017-07-16T00:30:51.925Z,0
2017-07-16T00:31:32.392Z,0
2017-07-16T00:32:12.866Z,0
2017-07-16T00:32:53.357Z,0
2017-07-16T00:33:33.858Z,0
2017-07-16T00:34:14.346Z,0
2017-07-16T00:34:54.791Z,0
2017-07-16T00:35:35.268Z,0
2017-07-16T00:36:15.732Z,0
2017-07-16T00:36:56.168Z,0
2017-07-16T00:37:36.640Z,0
2017-07-16T00:38:17.109Z,0
2017-07-16T00:38:57.547Z,0
2017-07-16T00:39:38.024Z,0
2017-07-16T00:40:18.461Z,0
2017-07-16T00:40:58.928Z,0
2017-07-16T00:41:39.372Z,0
2017-07-16T00:42:19.843Z,0
2017-07-16T00:43:00.279Z,0
2017-07-16T00:43:40.703Z,0
2017-07-16T00:44:21.122Z,0
2017-07-16T00:45:01.582Z,0
2017-07-16T00:46:59.206Z,0
2017-07-16T00:47:39.709Z,0
2017-07-16T00:48:20.184Z,0
2017-07-16T00:49:00.660Z,0
2017-07-16T00:49:41.181Z,0
2017-07-16T00:50:21.659Z,0
2017-07-16T00:51:02.123Z,0
2017-07-16T00:51:42.604Z,0
2017-07-16T00:52:23.048Z,0
2017-07-16T00:53:03.587Z,0
2017-07-16T00:53:44.047Z,0
2017-07-16T00:54:24.520Z,0
2017-07-16T00:55:05.026Z,0
2017-07-16T00:55:45.498Z,0
2017-07-16T00:56:25.978Z,0
2017-07-16T00:57:06.409Z,0
2017-07-16T00:57:46.879Z,0
2017-07-16T00:58:27.332Z,0
2017-07-16T00:59:07.823Z,0
2017-07-16T00:59:48.267Z,0
2017-07-16T01:00:28.775Z,0
2017-07-16T01:01:09.215Z,0
2017-07-16T01:01:49.650Z,0
2017-07-16T01:04:17.623Z,0
2017-07-16T01:04:58.076Z,0
2017-07-16T01:05:38.595Z,0
2017-07-16T01:06:18.961Z,0
2017-07-16T01:06:59.421Z,0
2017-07-16T01:07:39.944Z,0
2017-07-16T01:08:20.408Z,0
2017-07-16T01:09:00.832Z,0
2017-07-16T01:11:33.906Z,0
2017-07-16T01:12:14.321Z,0
2017-07-16T01:12:54.785Z,0
2017-07-16T01:13:35.258Z,0
2017-07-16T01:14:15.747Z,0
2017-07-16T01:14:56.180Z,0
2017-07-16T01:15:36.646Z,0
2017-07-16T01:16:17.129Z,0
2017-07-16T01:16:57.634Z,0
2017-07-16T01:17:38.149Z,0
2017-07-16T01:18:18.607Z,0
2017-07-16T01:18:59.113Z,0
2017-07-16T01:19:39.712Z,0
2017-07-16T01:20:20.187Z,0
2017-07-16T01:21:00.618Z,0
2017-07-16T01:21:41.108Z,0
2017-07-16T01:23:53.908Z,0
2017-07-16T01:24:34.360Z,0
2017-07-16T01:25:14.837Z,0
2017-07-16T01:25:55.299Z,0
2017-07-16T01:26:35.763Z,0
2017-07-16T01:27:16.314Z,0
2017-07-16T01:27:56.787Z,0
2017-07-16T01:28:37.236Z,0
2017-07-16T01:29:17.697Z,0
2017-07-16T01:29:58.143Z,0
2017-07-16T01:30:38.666Z,0
2017-07-16T01:31:19.106Z,0
2017-07-16T01:31:59.574Z,0
2017-07-16T01:34:32.599Z,0
2017-07-16T01:35:13.087Z,0
2017-07-16T01:35:53.516Z,0
2017-07-16T01:38:26.494Z,0
2017-07-16T01:39:06.962Z,0
2017-07-16T01:41:24.880Z,0
2017-07-16T01:42:05.266Z,0
2017-07-16T01:42:45.743Z,0
2017-07-16T01:43:26.206Z,0
2017-07-16T01:44:06.702Z,0
2017-07-16T01:44:47.129Z,0
2017-07-16T01:45:27.567Z,0
2017-07-16T01:46:08.038Z,0
2017-07-16T01:46:48.491Z,0
2017-07-16T01:47:28.931Z,0
2017-07-16T01:48:09.416Z,0
2017-07-16T01:48:49.910Z,0
2017-07-16T01:49:30.403Z,0
2017-07-16T01:50:10.844Z,0
2017-07-16T01:50:51.243Z,0
2017-07-16T01:51:31.698Z,0
2017-07-16T01:52:12.144Z,0
2017-07-16T01:52:52.589Z,0
2017-07-16T01:53:33.090Z,0
2017-07-16T01:54:13.593Z,0
2017-07-16T01:54:54.070Z,0
2017-07-16T01:55:34.534Z,0
2017-07-16T01:56:14.984Z,0
2017-07-16T01:56:55.477Z,0
2017-07-16T01:57:35.907Z,0
2017-07-16T01:58:16.365Z,0
2017-07-16T02:00:34.236Z,0
2017-07-16T02:01:14.669Z,0
2017-07-16T02:01:55.151Z,0
2017-07-16T02:02:35.610Z,0
2017-07-16T02:03:16.085Z,0
2017-07-16T02:03:56.540Z,0
2017-07-16T02:04:37.020Z,0
2017-07-16T02:05:17.526Z,0
2017-07-16T02:05:58.043Z,0
2017-07-16T02:08:25.982Z,0
2017-07-16T02:09:06.452Z,0
2017-07-16T02:09:46.938Z,0
2017-07-16T02:10:27.405Z,0
2017-07-16T02:11:07.855Z,0
2017-07-16T02:11:48.302Z,0
2017-07-16T02:12:28.754Z,0
2017-07-16T02:13:09.204Z,0
2017-07-16T02:13:49.655Z,0
2017-07-16T02:16:17.976Z,0
2017-07-16T02:16:58.432Z,0
2017-07-16T02:17:38.888Z,0
2017-07-16T02:18:19.496Z,0
2017-07-16T02:18:59.927Z,0
2017-07-16T02:19:40.426Z,0
2017-07-16T02:20:20.889Z,0
2017-07-16T02:21:01.314Z,0
2017-07-16T02:21:41.804Z,0
2017-07-16T02:22:22.276Z,0
2017-07-16T02:23:02.756Z,0
2017-07-16T02:23:43.194Z,0
2017-07-16T02:24:23.657Z,0
2017-07-16T02:25:04.033Z,0
2017-07-16T02:25:44.494Z,0
2017-07-16T02:28:02.313Z,0
2017-07-16T02:28:42.826Z,0
2017-07-16T02:29:23.225Z,0
2017-07-16T02:30:03.759Z,0
2017-07-16T02:30:44.217Z,0
2017-07-16T02:31:24.649Z,0
2017-07-16T02:32:05.087Z,0
2017-07-16T02:32:45.527Z,0
2017-07-16T02:33:25.960Z,0
2017-07-16T02:34:06.382Z,0
2017-07-16T02:34:46.857Z,0
2017-07-16T02:35:27.303Z,0
2017-07-16T02:36:07.755Z,0
2017-07-16T02:36:48.197Z,0
2017-07-16T02:37:29.155Z,0
2017-07-16T02:39:57.109Z,0
2017-07-16T02:40:37.596Z,0
2017-07-16T02:41:18.822Z,0
2017-07-16T02:41:59.242Z,0
2017-07-16T02:42:39.741Z,0
2017-07-16T02:43:20.189Z,0
2017-07-16T02:44:00.612Z,0
2017-07-16T02:44:41.061Z,0
2017-07-16T02:45:22.400Z,0
2017-07-16T02:46:02.827Z,0
2017-07-16T02:46:43.345Z,0
2017-07-16T02:47:23.777Z,0
2017-07-16T02:48:04.216Z,0
2017-07-16T02:48:44.686Z,0
2017-07-16T02:51:02.545Z,0
2017-07-16T02:51:43.034Z,0
2017-07-16T02:52:23.536Z,0
2017-07-16T02:53:04.003Z,0
2017-07-16T02:53:44.505Z,0
2017-07-16T02:54:24.995Z,0
2017-07-16T02:55:05.450Z,0
2017-07-16T02:55:45.907Z,0
2017-07-16T02:56:26.390Z,0
2017-07-16T02:57:06.826Z,0
2017-07-16T02:59:19.811Z,0
2017-07-16T03:00:00.255Z,0
2017-07-16T03:00:40.725Z,0
2017-07-16T03:01:21.161Z,0
2017-07-16T03:02:01.615Z,0
2017-07-16T03:04:29.567Z,4
2017-07-16T03:05:10.008Z,4
2017-07-16T03:05:50.471Z,0
2017-07-16T03:06:30.929Z,0
2017-07-16T03:07:11.364Z,4
2017-07-16T03:07:51.816Z,4
2017-07-16T03:08:32.300Z,4
2017-07-16T03:09:12.761Z,4
2017-07-16T03:09:53.188Z,4
2017-07-16T03:10:33.667Z,4
2017-07-16T03:11:14.100Z,8
2017-07-16T03:11:54.569Z,4
2017-07-16T03:12:35.031Z,8
2017-07-16T03:13:15.472Z,4
2017-07-16T03:13:55.862Z,8
2017-07-16T03:14:36.310Z,12
2017-07-16T03:15:16.756Z,12
2017-07-16T03:15:57.224Z,8
2017-07-16T03:16:37.666Z,12
2017-07-16T03:17:18.129Z,12
2017-07-16T03:17:58.573Z,12
2017-07-16T03:18:39.045Z,20
2017-07-16T03:20:51.765Z,24
2017-07-16T03:21:32.236Z,28
2017-07-16T03:22:12.688Z,28
2017-07-16T03:22:53.201Z,32
2017-07-16T03:23:33.688Z,32
2017-07-16T03:24:14.164Z,36
2017-07-16T03:24:54.613Z,36
2017-07-16T03:25:35.100Z,40
2017-07-16T03:26:15.580Z,40
2017-07-16T03:26:56.105Z,48
2017-07-16T03:27:36.573Z,52
2017-07-16T03:28:17.037Z,56
2017-07-16T03:28:57.514Z,56
2017-07-16T03:29:38.047Z,64
2017-07-16T03:30:18.489Z,68
2017-07-16T03:30:58.951Z,72
2017-07-16T03:31:39.424Z,80
2017-07-16T03:32:19.863Z,84
2017-07-16T03:33:00.368Z,96
2017-07-16T03:33:40.848Z,100
2017-07-16T03:34:21.293Z,108
2017-07-16T03:35:01.820Z,116
2017-07-16T03:35:42.252Z,124
2017-07-16T03:36:22.730Z,132
2017-07-16T03:37:03.196Z,136
2017-07-16T03:37:43.663Z,144
2017-07-16T03:38:24.150Z,152
2017-07-16T03:39:04.587Z,160
2017-07-16T03:39:45.050Z,172
2017-07-16T03:40:25.514Z,180
2017-07-16T03:41:05.953Z,192
2017-07-16T03:41:46.431Z,196
2017-07-16T03:42:26.941Z,204
2017-07-16T03:43:07.371Z,216
2017-07-16T03:43:47.816Z,228
2017-07-16T03:44:28.327Z,240
2017-07-16T03:45:08.805Z,252
2017-07-16T03:45:49.284Z,260
2017-07-16T03:46:29.723Z,268
2017-07-16T03:47:10.184Z,280
2017-07-16T03:47:50.718Z,292
2017-07-16T03:48:31.180Z,304
2017-07-16T03:49:11.638Z,316
2017-07-16T03:49:52.113Z,324
2017-07-16T03:50:32.603Z,332
2017-07-16T03:51:13.040Z,348
2017-07-16T03:53:30.961Z,368
2017-07-16T03:54:11.359Z,372
2017-07-16T03:54:51.791Z,376
2017-07-16T03:55:32.245Z,388
2017-07-16T03:56:12.687Z,400
2017-07-16T03:56:53.165Z,408
2017-07-16T03:57:33.603Z,424
2017-07-16T03:58:14.077Z,436
2017-07-16T03:58:54.536Z,452
2017-07-16T03:59:35.005Z,472
2017-07-16T04:01:52.790Z,544
2017-07-16T04:02:33.287Z,564
2017-07-16T04:03:13.782Z,580
2017-07-16T04:03:54.286Z,592
2017-07-16T04:04:34.736Z,612
2017-07-16T04:05:15.217Z,628
2017-07-16T04:05:55.684Z,644
2017-07-16T04:06:36.172Z,668
2017-07-16T04:07:16.670Z,692
2017-07-16T04:07:57.165Z,712
2017-07-16T04:08:37.632Z,732
2017-07-16T04:09:18.132Z,752
2017-07-16T04:09:58.596Z,772
2017-07-16T04:10:39.075Z,796
2017-07-16T04:11:19.568Z,820
2017-07-16T04:12:00.003Z,844
2017-07-16T04:12:40.472Z,868
2017-07-16T04:13:20.902Z,892
2017-07-16T04:14:01.365Z,916
2017-07-16T04:14:41.882Z,944
2017-07-16T04:15:22.317Z,968
2017-07-16T04:16:02.767Z,984
2017-07-16T04:16:43.226Z,1004
2017-07-16T04:17:23.688Z,1024
2017-07-16T04:18:04.141Z,1048
2017-07-16T04:18:44.592Z,1080
2017-07-16T04:19:25.074Z,1108
2017-07-16T04:20:05.514Z,1128
2017-07-16T04:20:45.969Z,1164
2017-07-16T04:21:26.468Z,1204
2017-07-16T04:22:06.895Z,1240
2017-07-16T04:22:47.348Z,1292
2017-07-16T04:25:15.252Z,1480
2017-07-16T04:25:55.721Z,1544
2017-07-16T04:26:36.162Z,1604
2017-07-16T04:28:49.004Z,1796
2017-07-16T04:29:29.412Z,1860
2017-07-16T04:30:09.886Z,1896
2017-07-16T04:30:50.354Z,1924
2017-07-16T04:31:30.850Z,1936
2017-07-16T04:32:11.251Z,1936
2017-07-16T04:32:51.705Z,1924
2017-07-16T04:33:32.178Z,1908
2017-07-16T04:34:12.632Z,1900
2017-07-16T04:34:53.069Z,1908
2017-07-16T04:35:33.562Z,1916
2017-07-16T04:36:14.064Z,1928
2017-07-16T04:36:54.636Z,1936
2017-07-16T04:37:35.044Z,1952
2017-07-16T04:38:15.497Z,1968
2017-07-16T04:38:55.934Z,1980
2017-07-16T04:39:36.396Z,1976
2017-07-16T04:41:34.089Z,1912
2017-07-16T04:42:14.544Z,1900
2017-07-16T04:42:55.082Z,1892
2017-07-16T04:43:35.549Z,1900
2017-07-16T04:44:16.012Z,1928
2017-07-16T04:44:56.484Z,1968
2017-07-16T04:45:36.965Z,2004
2017-07-16T04:46:17.441Z,2040
2017-07-16T04:46:57.913Z,2072
2017-07-16T04:47:38.391Z,2092
2017-07-16T04:48:18.854Z,2112
2017-07-16T04:48:59.361Z,2124
2017-07-16T04:49:39.828Z,2140
2017-07-16T04:50:20.305Z,2156
2017-07-16T04:51:00.759Z,2160
2017-07-16T04:51:41.212Z,2164
2017-07-16T04:54:14.206Z,2156
2017-07-16T04:54:54.741Z,2152
2017-07-16T04:55:35.177Z,2164
2017-07-16T04:56:15.647Z,2196
2017-07-16T04:56:56.114Z,2244
2017-07-16T04:57:36.577Z,2288
2017-07-16T04:58:17.048Z,2324
2017-07-16T05:00:44.998Z,2484
2017-07-16T05:01:25.490Z,2524
2017-07-16T05:02:05.948Z,2552
2017-07-16T05:02:46.564Z,2576
2017-07-16T05:03:26.959Z,2572
2017-07-16T05:04:07.425Z,2548
2017-07-16T05:04:47.891Z,2496
2017-07-16T05:05:28.357Z,2428
2017-07-16T05:06:08.848Z,2344
2017-07-16T05:06:49.353Z,2276
2017-07-16T05:07:29.809Z,2224
2017-07-16T05:08:10.284Z,2188
2017-07-16T05:08:50.746Z,2172
2017-07-16T05:09:31.178Z,2180
2017-07-16T05:10:11.625Z,2232
2017-07-16T05:10:52.102Z,2324
2017-07-16T05:11:32.578Z,2456
2017-07-16T05:12:13.011Z,2608
2017-07-16T05:12:53.466Z,2756
2017-07-16T05:15:11.297Z,3084
2017-07-16T05:15:51.738Z,3132
2017-07-16T05:16:32.177Z,3200
2017-07-16T05:17:12.651Z,3252
2017-07-16T05:17:53.120Z,3332
2017-07-16T05:18:33.623Z,3460
2017-07-16T05:19:14.051Z,3580
2017-07-16T05:19:54.535Z,3732
2017-07-16T05:20:34.997Z,3920
2017-07-16T05:21:15.428Z,4144
2017-07-16T05:21:55.861Z,4432
2017-07-16T05:22:36.295Z,4736
2017-07-16T05:23:16.810Z,4976
2017-07-16T05:25:44.730Z,5076
2017-07-16T05:26:25.211Z,5000
2017-07-16T05:27:05.710Z,5048
2017-07-16T05:27:46.143Z,5084
2017-07-16T05:28:26.619Z,5112
2017-07-16T05:29:07.036Z,5148
2017-07-16T05:31:04.701Z,5672
2017-07-16T05:31:45.134Z,6164
2017-07-16T05:32:25.590Z,6740
2017-07-16T05:33:05.988Z,7272
2017-07-16T05:33:46.470Z,7680
2017-07-16T05:36:19.487Z,8324
2017-07-16T05:36:59.990Z,8808
2017-07-16T05:37:40.458Z,9464
2017-07-16T05:38:20.954Z,9664
2017-07-16T05:39:01.414Z,8812
2017-07-16T05:39:41.888Z,7588
2017-07-16T05:40:22.407Z,8692
2017-07-16T05:41:02.842Z,6448
2017-07-16T05:41:43.322Z,5976
2017-07-16T05:42:23.701Z,5580
2017-07-16T05:43:04.131Z,5320
2017-07-16T05:43:44.642Z,5116
2017-07-16T05:44:25.051Z,5060
2017-07-16T05:45:05.507Z,5112
2017-07-16T05:45:46.021Z,5188
2017-07-16T05:46:26.494Z,5348
2017-07-16T05:47:06.886Z,5460
2017-07-16T05:47:47.369Z,5616
2017-07-16T05:50:15.296Z,5948
2017-07-16T05:50:55.745Z,5892
2017-07-16T05:51:36.237Z,5872
2017-07-16T05:52:16.686Z,5900
2017-07-16T05:52:57.184Z,6052
2017-07-16T05:53:37.671Z,6212
2017-07-16T05:54:18.168Z,6356
2017-07-16T05:56:30.899Z,6288
2017-07-16T05:57:11.358Z,6268
2017-07-16T05:57:51.824Z,6140
2017-07-16T05:58:32.259Z,6000
2017-07-16T05:59:12.722Z,5868
2017-07-16T05:59:53.172Z,5672
2017-07-16T06:01:50.849Z,5468
2017-07-16T06:02:31.359Z,5520
2017-07-16T06:03:11.806Z,5592
2017-07-16T06:03:52.253Z,5676
2017-07-16T06:04:32.681Z,5728
2017-07-16T06:05:13.111Z,5784
2017-07-16T06:05:53.597Z,5896
2017-07-16T06:08:06.358Z,5860
2017-07-16T06:08:46.836Z,5784
2017-07-16T06:09:27.328Z,5704
2017-07-16T06:10:07.824Z,5552
2017-07-16T06:10:48.309Z,5464
2017-07-16T06:11:28.794Z,5456
2017-07-16T06:12:09.266Z,5512
2017-07-16T06:12:49.748Z,5592
2017-07-16T06:13:30.255Z,5640
2017-07-16T06:14:10.758Z,5676
2017-07-16T06:14:51.260Z,5820
2017-07-16T06:15:31.721Z,5980
2017-07-16T06:16:12.238Z,6084
2017-07-16T06:16:52.700Z,6292
2017-07-16T06:17:33.150Z,6452
2017-07-16T06:18:13.579Z,6972
2017-07-16T06:18:54.061Z,6660
2017-07-16T06:19:34.504Z,6740
2017-07-16T06:20:14.973Z,6704
2017-07-16T06:20:55.418Z,6788
2017-07-16T06:21:35.827Z,6908
2017-07-16T06:22:16.275Z,6996
2017-07-16T06:22:56.769Z,7028
2017-07-16T06:23:37.289Z,7064
2017-07-16T06:24:17.734Z,7060
2017-07-16T06:24:58.207Z,7008
2017-07-16T06:25:38.659Z,7036
2017-07-16T06:26:19.108Z,7120
2017-07-16T06:26:59.564Z,7280
2017-07-16T06:27:40.080Z,7540
2017-07-16T06:28:20.503Z,7780
2017-07-16T06:29:00.925Z,8108
2017-07-16T06:29:41.404Z,8416
2017-07-16T06:30:21.876Z,8424
2017-07-16T06:31:02.379Z,8400
2017-07-16T06:31:42.861Z,8228
2017-07-16T06:32:23.333Z,7832
2017-07-16T06:33:03.805Z,7504
2017-07-16T06:33:44.253Z,7208
2017-07-16T06:34:24.786Z,6996
2017-07-16T06:35:05.184Z,6800
2017-07-16T06:37:17.968Z,6880
2017-07-16T06:37:58.411Z,6916
2017-07-16T06:38:38.875Z,7092
2017-07-16T06:41:06.822Z,8252
2017-07-16T06:41:47.310Z,8816
2017-07-16T06:42:27.747Z,9548
2017-07-16T06:43:08.185Z,10436
2017-07-16T06:43:48.658Z,11220
2017-07-16T06:44:29.135Z,12036
2017-07-16T06:45:09.642Z,12504
2017-07-16T06:45:50.086Z,12860
2017-07-16T06:46:30.539Z,13120
2017-07-16T06:47:10.996Z,13368
2017-07-16T06:47:51.420Z,13724
2017-07-16T06:48:31.928Z,14232
2017-07-16T06:50:44.628Z,15460
2017-07-16T06:51:25.114Z,15872
2017-07-16T06:52:05.599Z,16324
2017-07-16T06:52:46.108Z,16752
2017-07-16T06:53:26.562Z,16880
2017-07-16T06:54:07.056Z,17792
2017-07-16T06:54:47.558Z,17824
2017-07-16T06:55:28.061Z,17728
2017-07-16T06:56:08.532Z,16420
2017-07-16T06:56:48.946Z,15836
2017-07-16T06:57:29.410Z,16348
2017-07-16T06:58:09.907Z,16168
2017-07-16T06:58:50.340Z,14796
2017-07-16T06:59:30.790Z,14392
2017-07-16T07:00:11.276Z,14092
2017-07-16T07:00:51.686Z,13684
2017-07-16T07:01:32.157Z,13196
2017-07-16T07:02:12.612Z,12720
2017-07-16T07:02:53.056Z,12364
2017-07-16T07:03:33.484Z,12092
2017-07-16T07:04:13.968Z,11876
2017-07-16T07:04:54.403Z,11712
2017-07-16T07:05:34.850Z,11540
2017-07-16T07:06:15.259Z,11420
2017-07-16T07:06:55.766Z,11232
2017-07-16T07:07:36.219Z,11076
2017-07-16T07:08:16.779Z,10884
2017-07-16T07:08:57.284Z,10744
2017-07-16T07:09:37.732Z,10460
2017-07-16T07:10:18.176Z,10288
2017-07-16T07:10:58.633Z,10048
2017-07-16T07:11:39.091Z,9860
2017-07-16T07:12:19.534Z,9648
2017-07-16T07:14:47.516Z,9404
2017-07-16T07:15:28.008Z,9384
2017-07-16T07:16:08.466Z,9404
2017-07-16T07:16:48.968Z,9476
2017-07-16T07:17:29.396Z,9592
2017-07-16T07:19:57.314Z,10204
2017-07-16T07:20:37.782Z,10416
2017-07-16T07:21:18.247Z,10644
2017-07-16T07:21:58.744Z,10940
2017-07-16T07:22:39.317Z,11272
2017-07-16T07:23:19.697Z,11620
2017-07-16T07:24:00.144Z,12016
2017-07-16T07:24:40.605Z,12416
2017-07-16T07:27:13.966Z,13348
2017-07-16T07:27:54.444Z,13516
2017-07-16T07:28:34.943Z,13716
2017-07-16T07:29:15.436Z,14012
2017-07-16T07:29:55.941Z,14404
2017-07-16T07:30:36.433Z,14652
2017-07-16T07:31:16.907Z,14888
2017-07-16T07:31:57.416Z,15028
2017-07-16T07:32:37.914Z,15096
2017-07-16T07:33:18.403Z,15292
2017-07-16T07:33:58.872Z,15348
2017-07-16T07:34:39.360Z,15360
2017-07-16T07:35:19.869Z,15308
2017-07-16T07:36:00.330Z,15136
2017-07-16T07:36:40.765Z,14860
2017-07-16T07:37:21.241Z,14512
2017-07-16T07:38:01.678Z,14100
2017-07-16T07:40:14.444Z,13104
2017-07-16T07:40:54.909Z,13052
2017-07-16T07:41:35.355Z,13188
2017-07-16T07:42:15.819Z,13356
2017-07-16T07:42:56.265Z,13488
2017-07-16T07:43:36.734Z,13536
2017-07-16T07:44:17.184Z,13544
2017-07-16T07:46:14.987Z,13264
2017-07-16T07:48:48.029Z,12516
2017-07-16T07:49:28.512Z,12328
2017-07-16T07:50:08.975Z,12208
2017-07-16T07:50:49.419Z,12200
2017-07-16T07:53:22.569Z,12928
2017-07-16T07:54:02.940Z,13048
2017-07-16T07:54:43.390Z,13240
2017-07-16T07:55:23.879Z,13484
2017-07-16T07:56:04.336Z,13760
2017-07-16T07:58:37.423Z,15492
2017-07-16T07:59:17.871Z,16116
2017-07-16T07:59:58.335Z,16668
2017-07-16T08:00:38.819Z,16852
2017-07-16T08:02:56.685Z,16916
2017-07-16T08:03:37.141Z,16608
2017-07-16T08:04:17.604Z,16632
2017-07-16T08:04:58.058Z,16744
2017-07-16T08:05:38.526Z,16688
2017-07-16T08:06:18.991Z,16608
2017-07-16T08:06:59.428Z,16556
2017-07-16T08:09:17.319Z,16700
2017-07-16T08:09:57.760Z,16820
2017-07-16T08:10:38.241Z,17120
2017-07-16T08:11:18.765Z,17696
2017-07-16T08:11:59.221Z,18112
2017-07-16T08:12:39.709Z,18464
2017-07-16T08:13:20.212Z,18784
2017-07-16T08:14:00.622Z,19168
2017-07-16T08:14:41.131Z,19488
2017-07-16T08:15:21.618Z,19488
2017-07-16T08:16:02.048Z,19744
2017-07-16T08:18:14.817Z,20352
2017-07-16T08:18:55.267Z,20384
2017-07-16T08:19:35.732Z,20352
2017-07-16T08:20:16.208Z,20160
2017-07-16T08:20:56.671Z,19840
2017-07-16T08:21:37.093Z,19712
2017-07-16T08:22:17.548Z,18944
2017-07-16T08:22:58.003Z,18208
2017-07-16T08:23:38.467Z,17792
2017-07-16T08:25:56.307Z,15296
2017-07-16T08:26:36.796Z,14752
2017-07-16T08:27:17.226Z,14352
2017-07-16T08:27:57.710Z,14164
2017-07-16T08:28:38.189Z,14136
2017-07-16T08:29:18.623Z,14196
2017-07-16T08:29:59.074Z,14268
2017-07-16T08:30:39.543Z,14296
2017-07-16T08:31:20.006Z,14284
2017-07-16T08:32:00.465Z,14300
2017-07-16T08:32:40.893Z,14376
2017-07-16T08:33:21.361Z,14516
2017-07-16T08:34:01.885Z,14704
2017-07-16T08:34:42.329Z,14928
2017-07-16T08:35:22.778Z,15224
2017-07-16T08:37:35.581Z,17156
2017-07-16T08:38:15.990Z,18304
2017-07-16T08:38:56.552Z,19360
2017-07-16T08:39:36.965Z,20544
2017-07-16T08:40:17.418Z,21440
2017-07-16T08:40:57.887Z,23168
2017-07-16T08:41:38.350Z,23456
2017-07-16T08:42:18.787Z,24736
2017-07-16T08:42:59.268Z,27904
2017-07-16T08:43:39.724Z,28608
2017-07-16T08:44:20.228Z,27552
2017-07-16T08:45:00.685Z,28672
2017-07-16T08:45:41.193Z,37568
2017-07-16T08:46:21.658Z,33472
2017-07-16T08:47:02.133Z,28256
2017-07-16T08:47:42.606Z,28672
2017-07-16T08:48:23.068Z,28768
2017-07-16T08:50:40.914Z,26048
2017-07-16T08:51:21.393Z,26336
2017-07-16T08:52:01.899Z,32256
2017-07-16T08:52:42.356Z,26464
2017-07-16T08:53:22.841Z,34880
2017-07-16T08:54:03.308Z,32320
2017-07-16T08:54:43.769Z,30304
2017-07-16T08:55:24.265Z,30272
2017-07-16T08:56:04.739Z,28448
2017-07-16T08:56:45.245Z,31104
2017-07-16T08:57:25.710Z,35648
2017-07-16T08:58:06.187Z,34496
2017-07-16T08:58:46.687Z,36000
2017-07-16T08:59:27.162Z,36256
2017-07-16T09:00:07.600Z,36928
2017-07-16T09:00:48.023Z,33696
2017-07-16T09:03:00.756Z,28064
2017-07-16T09:03:41.237Z,27232
2017-07-16T09:04:21.653Z,27072
2017-07-16T09:05:02.140Z,27072
2017-07-16T09:07:19.958Z,27616
2017-07-16T09:08:00.421Z,28224
2017-07-16T09:08:40.874Z,27680
2017-07-16T09:09:21.344Z,27776
2017-07-16T09:10:01.779Z,28256
2017-07-16T09:10:42.200Z,27392
2017-07-16T09:11:22.726Z,26880
2017-07-16T09:13:50.688Z,23616
2017-07-16T09:14:31.148Z,23200
2017-07-16T09:15:11.620Z,22784
2017-07-16T09:15:52.072Z,22400
2017-07-16T09:16:32.511Z,21696
2017-07-16T09:18:30.114Z,20704
2017-07-16T09:19:10.587Z,20672
2017-07-16T09:19:51.041Z,20544
2017-07-16T09:20:31.481Z,20480
2017-07-16T09:21:11.959Z,20224
2017-07-16T09:21:52.399Z,20032
2017-07-16T09:22:32.951Z,19936
2017-07-16T09:23:13.403Z,19712
2017-07-16T09:23:53.912Z,19744
2017-07-16T09:24:34.366Z,19936
2017-07-16T09:26:47.123Z,20672
2017-07-16T09:27:27.653Z,20576
2017-07-16T09:28:08.116Z,20704
2017-07-16T09:28:48.582Z,20832
2017-07-16T09:29:29.064Z,21408
2017-07-16T09:30:09.533Z,21920
2017-07-16T09:30:49.990Z,22496
2017-07-16T09:31:30.505Z,23104
2017-07-16T09:32:10.985Z,24352
2017-07-16T09:32:51.468Z,25312
2017-07-16T09:33:31.916Z,24352
2017-07-16T09:34:12.371Z,24160
2017-07-16T09:34:52.808Z,23776
2017-07-16T09:35:33.308Z,23296
2017-07-16T09:36:13.754Z,22784
2017-07-16T09:36:54.289Z,22432
2017-07-16T09:37:34.756Z,22304
2017-07-16T09:38:15.190Z,22176
2017-07-16T09:38:55.647Z,22048
2017-07-16T09:39:36.078Z,21824
2017-07-16T09:40:16.542Z,21792
2017-07-16T09:40:56.929Z,21760
2017-07-16T09:41:37.414Z,21728
2017-07-16T09:42:17.921Z,21664
2017-07-16T09:42:58.378Z,21248
2017-07-16T09:43:38.826Z,21056
2017-07-16T09:44:19.322Z,20768
2017-07-16T09:44:59.873Z,20896
2017-07-16T09:45:40.336Z,21152
2017-07-16T09:46:20.798Z,21792
2017-07-16T09:47:01.229Z,23232
2017-07-16T09:47:41.703Z,26016
2017-07-16T09:48:22.160Z,30240
2017-07-16T09:49:02.646Z,30080
2017-07-16T09:49:43.067Z,29568
2017-07-16T09:50:23.500Z,29472
2017-07-16T09:51:03.998Z,30464
2017-07-16T09:51:44.438Z,31968
2017-07-16T09:52:24.899Z,34592
2017-07-16T09:53:05.349Z,33280
2017-07-16T09:55:38.338Z,40160
2017-07-16T09:56:18.827Z,36224
2017-07-16T09:56:59.301Z,36480
2017-07-16T09:57:39.829Z,32576
2017-07-16T09:58:20.331Z,32832
2017-07-16T09:59:00.787Z,31328
2017-07-16T09:59:41.256Z,32096
2017-07-16T10:00:21.690Z,32480
2017-07-16T10:01:02.147Z,32224
2017-07-16T10:01:42.618Z,37216
2017-07-16T10:02:23.065Z,34624
2017-07-16T10:03:03.515Z,35904
2017-07-16T10:03:44.002Z,38752
2017-07-16T10:04:24.479Z,38240
2017-07-16T10:05:05.833Z,38400
2017-07-16T10:05:46.292Z,39776
2017-07-16T10:06:26.744Z,40608
2017-07-16T10:07:07.204Z,38912
2017-07-16T10:07:47.656Z,37472
2017-07-16T10:08:28.132Z,36256
2017-07-16T10:09:08.572Z,36928
2017-07-16T10:09:49.003Z,36544
2017-07-16T10:10:29.442Z,37248
2017-07-16T10:12:42.268Z,35232
2017-07-16T10:13:22.706Z,34752
2017-07-16T10:14:03.282Z,34048
2017-07-16T10:14:43.722Z,33504
2017-07-16T10:15:24.200Z,33632
2017-07-16T10:16:04.695Z,33152
2017-07-16T10:16:45.134Z,33024
2017-07-16T10:17:25.600Z,32928
2017-07-16T10:18:06.128Z,32864
2017-07-16T10:18:46.638Z,33536
2017-07-16T10:19:27.259Z,33984
2017-07-16T10:20:07.732Z,34048
2017-07-16T10:20:48.185Z,35008
2017-07-16T10:21:28.651Z,35232
2017-07-16T10:22:09.125Z,36032
2017-07-16T10:22:49.649Z,36736
2017-07-16T10:23:30.129Z,36448
2017-07-16T10:24:10.658Z,35936
2017-07-16T10:24:51.102Z,36096
2017-07-16T10:25:31.566Z,35232
2017-07-16T10:26:12.079Z,34816
2017-07-16T10:26:52.498Z,36576
2017-07-16T10:27:32.949Z,34688
2017-07-16T10:28:13.432Z,34208
2017-07-16T10:30:31.251Z,35584
2017-07-16T10:31:11.736Z,34592
2017-07-16T10:33:29.608Z,32352
2017-07-16T10:34:10.094Z,35104
2017-07-16T10:34:50.539Z,37472
2017-07-16T10:35:31.019Z,39872
2017-07-16T10:37:28.685Z,38944
2017-07-16T10:38:09.120Z,39424
2017-07-16T10:38:49.605Z,54912
2017-07-16T10:39:30.040Z,35040
2017-07-16T10:40:10.499Z,32352
2017-07-16T10:40:50.975Z,33440
2017-07-16T10:41:31.413Z,36832
2017-07-16T10:43:44.237Z,30112
2017-07-16T10:44:24.709Z,27136
2017-07-16T10:45:05.204Z,25408
2017-07-16T10:45:45.690Z,25184
2017-07-16T10:46:26.181Z,26656
2017-07-16T10:47:06.591Z,29728
2017-07-16T10:47:47.067Z,39616
2017-07-16T10:49:44.750Z,39424
2017-07-16T10:50:25.245Z,39904
2017-07-16T10:51:05.727Z,42496
2017-07-16T10:51:46.174Z,41984
2017-07-16T10:52:26.649Z,39040
2017-07-16T10:53:07.147Z,39776